Etusivu
METAR-TAF:

METAR-TAF

Lentoasemat :

Wharton, Texas, Yhdysvallat

Leveyspiiri: 29-15-15N, Pituuspiiri: 096-09-15W, korkeus merenpinnasta: 31 m

Tämänhetkinen sää

Tämä raportti tehtiin 29 minuuttia sitten, kello 14.55 UTC
Tuuli 6 kn etelästä/kaakosta
Lämpötila 30°C
Kosteus 70%
Ilmanpaine 1019 hPa
Näkyvyys: 16.1 km
Hajonneita pilviä 1800 ft:n korkeudessa

METAR: KARM 101455Z AUTO 16006KT 10SM BKN018 30/24 A3009 RMK AO2 T03010241

Aika: 10:24 (15:24 UTC)


TAF: puuttuu

Säähavainnot ja -ennusteet yli 4000 lentoasemalta (METAR- ja TAF-raportit).

Käytössä olevat sääasemat on merkitty karttaan keltaisilla ja punaisilla pisteillä.

Aseta hiiri pisteen päälle nähdäksesi sääaseman nimen.

Klikkaa sitten nähdäksesi säähavainnot ja -ennusteet.

Kartan vaihtaminen: klikkaa mustalla rastilla varustettuja vihreitä pisteitä, niin voit zoomata sisään; viivalla varustettua vihreää pistettä, niin voit zoomata ulos tai vihreitä nuolia, niin pääset viereisille kartoille.


METAR-TAF: